Time;durP1;ratioP1;P1;durP2;ratioP2;P2;SDS_P1;SDS_P2;PMS_P1;PMS_P2;Temp;Humidity;BMP_temperature;BMP_pressure;BME280_temperature;BME280_humidity;BME280_pressure;Samples;Min_cycle;Max_cycle;Signal;HPM_P1;HPM_P2
2021/12/14 00:00:39;;;;;;;1.15;1.00;;;7.50;99.90;;;;;;5037234;28;20267;-67
2021/12/14 00:03:08;;;;;;;1.48;1.20;;;7.50;99.90;;;;;;5033316;28;20224;-69
2021/12/14 00:05:40;;;;;;;1.05;0.88;;;7.50;99.90;;;;;;5047951;28;20182;-68
2021/12/14 00:08:13;;;;;;;1.50;1.20;;;7.50;99.90;;;;;;5040338;28;20218;-68
2021/12/14 00:11:10;;;;;;;1.90;0.88;;;7.50;99.90;;;;;;5051422;28;20564;-67
2021/12/14 00:13:56;;;;;;;1.27;0.90;;;7.50;99.90;;;;;;5034829;28;20818;-69
2021/12/14 00:16:24;;;;;;;1.02;0.93;;;7.50;99.90;;;;;;5014993;28;20260;-70
2021/12/14 00:18:52;;;;;;;1.50;1.00;;;7.50;99.90;;;;;;5016042;28;20232;-69
2021/12/14 00:21:30;;;;;;;1.75;1.10;;;7.50;99.90;;;;;;5021174;28;20184;-69
2021/12/14 00:24:10;;;;;;;1.35;1.10;;;7.60;99.90;;;;;;5018448;28;20271;-67
2021/12/14 00:26:42;;;;;;;1.40;1.25;;;7.50;99.90;;;;;;5034996;28;20293;-67
2021/12/14 00:29:15;;;;;;;2.40;1.30;;;7.50;99.90;;;;;;5025171;28;20224;-69
2021/12/14 00:31:43;;;;;;;1.07;0.93;;;7.50;99.90;;;;;;5013792;28;20194;-68
2021/12/14 00:34:14;;;;;;;1.20;1.10;;;7.50;99.90;;;;;;5015430;28;20990;-68
2021/12/14 00:36:43;;;;;;;1.38;1.00;;;7.50;99.90;;;;;;4996762;28;20197;-67
2021/12/14 00:39:11;;;;;;;1.40;0.98;;;7.50;99.90;;;;;;5013482;28;20305;-67
2021/12/14 00:41:41;;;;;;;1.02;0.93;;;7.60;99.90;;;;;;5008855;28;20197;-68
2021/12/14 00:44:11;;;;;;;1.35;1.25;;;7.50;99.90;;;;;;5012963;28;20442;-68
2021/12/14 00:46:40;;;;;;;1.30;1.00;;;7.60;99.90;;;;;;5028797;28;20197;-67
2021/12/14 00:49:13;;;;;;;1.13;1.02;;;7.50;99.90;;;;;;5024070;28;20222;-68
2021/12/14 00:51:43;;;;;;;1.10;1.00;;;7.50;99.90;;;;;;5028168;28;20200;-68
2021/12/14 00:54:14;;;;;;;1.00;0.90;;;7.60;99.90;;;;;;5048198;28;20219;-68
2021/12/14 00:56:47;;;;;;;0.95;0.80;;;7.60;99.90;;;;;;5043026;28;20192;-69
2021/12/14 00:59:18;;;;;;;1.00;0.90;;;7.50;99.90;;;;;;5053318;28;20222;-66
2021/12/14 01:01:51;;;;;;;1.20;1.05;;;7.50;99.90;;;;;;5050503;28;20249;-67
2021/12/14 01:04:23;;;;;;;1.10;1.00;;;7.60;99.90;;;;;;5040538;28;20231;-68
2021/12/14 01:06:53;;;;;;;1.10;0.80;;;7.50;99.90;;;;;;5017789;28;20191;-68
2021/12/14 01:09:24;;;;;;;1.40;1.30;;;7.50;99.90;;;;;;5031170;28;20724;-68
2021/12/14 01:11:54;;;;;;;1.13;1.02;;;7.60;99.90;;;;;;5031929;28;20190;-67
2021/12/14 01:14:30;;;;;;;1.05;0.88;;;7.60;99.90;;;;;;5052388;28;20214;-68
2021/12/14 01:17:10;;;;;;;1.20;1.10;;;7.50;99.90;;;;;;5034872;28;20196;-66
2021/12/14 01:19:40;;;;;;;1.15;0.95;;;7.50;99.90;;;;;;5017045;28;20757;-67
2021/12/14 01:22:33;;;;;;;1.02;1.00;;;7.60;99.90;;;;;;5022495;28;20205;-69
2021/12/14 01:25:08;;;;;;;1.00;0.90;;;7.50;99.90;;;;;;5036274;28;20686;-66
2021/12/14 01:27:42;;;;;;;1.40;1.30;;;7.60;99.90;;;;;;5050920;28;20314;-68
2021/12/14 01:30:20;;;;;;;1.10;0.95;;;7.60;99.90;;;;;;5032431;28;20232;-68
2021/12/14 01:32:50;;;;;;;1.80;1.25;;;7.50;99.90;;;;;;5039331;28;20213;-67
2021/12/14 01:35:28;;;;;;;1.27;1.17;;;7.50;99.90;;;;;;5035666;28;20189;-67
2021/12/14 01:38:02;;;;;;;1.30;1.02;;;7.50;99.90;;;;;;5031151;28;20235;-67
2021/12/14 01:40:54;;;;;;;1.00;0.90;;;7.60;99.90;;;;;;5032159;28;20214;-68
2021/12/14 01:43:39;;;;;;;1.27;0.98;;;7.60;99.90;;;;;;5021148;28;20219;-68
2021/12/14 01:46:17;;;;;;;1.40;1.30;;;7.50;99.90;;;;;;5032583;28;20219;-69
2021/12/14 01:48:46;;;;;;;1.20;0.95;;;7.60;99.90;;;;;;5031955;28;20225;-68
2021/12/14 01:51:41;;;;;;;1.15;0.98;;;7.50;99.90;;;;;;5041177;28;20201;-67
2021/12/14 01:54:23;;;;;;;1.70;1.30;;;7.50;99.90;;;;;;5058230;28;20222;-67
2021/12/14 01:56:52;;;;;;;1.20;1.10;;;7.60;99.90;;;;;;5032076;28;20237;-67
2021/12/14 01:59:25;;;;;;;0.80;0.70;;;7.50;99.90;;;;;;5031895;28;20229;-67
2021/12/14 02:02:07;;;;;;;1.30;1.20;;;7.50;99.90;;;;;;5067252;28;20728;-68
2021/12/14 02:04:40;;;;;;;1.05;0.95;;;7.60;99.90;;;;;;5066432;28;20244;-67
2021/12/14 02:07:10;;;;;;;1.52;0.90;;;7.50;99.90;;;;;;5046638;28;20208;-67
2021/12/14 02:09:52;;;;;;;0.98;0.82;;;7.60;99.90;;;;;;5029127;28;20228;-67
2021/12/14 02:12:24;;;;;;;0.90;0.80;;;7.50;99.90;;;;;;5043858;28;20214;-67
2021/12/14 02:14:53;;;;;;;1.17;0.82;;;7.60;99.90;;;;;;5047998;28;20234;-69
2021/12/14 02:17:24;;;;;;;1.17;1.00;;;7.50;99.90;;;;;;5033169;28;20199;-67
2021/12/14 02:19:53;;;;;;;1.50;1.20;;;7.60;99.90;;;;;;5031498;28;20225;-68
2021/12/14 02:22:22;;;;;;;1.38;1.10;;;7.60;99.90;;;;;;5027952;28;20288;-69
2021/12/14 02:24:52;;;;;;;1.15;1.05;;;7.50;99.90;;;;;;5014734;28;20608;-68
2021/12/14 02:27:21;;;;;;;1.73;0.98;;;7.60;99.90;;;;;;5061141;28;20286;-67
2021/12/14 02:29:51;;;;;;;1.23;1.13;;;7.50;99.90;;;;;;5044855;28;20296;-69
2021/12/14 02:32:22;;;;;;;1.40;1.20;;;7.60;99.90;;;;;;5046243;28;20254;-67
2021/12/14 02:34:53;;;;;;;1.95;1.17;;;7.60;99.90;;;;;;5052224;28;20197;-68
2021/12/14 02:37:37;;;;;;;1.38;1.25;;;7.50;99.90;;;;;;5032346;28;20198;-69
2021/12/14 02:40:16;;;;;;;1.77;1.20;;;7.50;99.90;;;;;;5041812;28;20277;-68
2021/12/14 02:42:46;;;;;;;1.65;0.93;;;7.60;99.90;;;;;;5064049;28;20239;-69
2021/12/14 02:45:15;;;;;;;1.38;1.25;;;7.60;99.90;;;;;;5017087;28;20206;-68
2021/12/14 02:47:43;;;;;;;1.92;1.20;;;7.50;99.90;;;;;;5017761;28;20781;-68
2021/12/14 02:50:12;;;;;;;1.63;1.23;;;7.50;99.90;;;;;;5052640;28;20299;-68
2021/12/14 02:52:41;;;;;;;2.10;1.42;;;7.60;99.90;;;;;;5026395;28;20594;-67
2021/12/14 02:55:14;;;;;;;1.30;0.77;;;7.60;99.90;;;;;;5032584;28;20203;-67
2021/12/14 02:57:45;;;;;;;1.23;1.03;;;7.50;99.90;;;;;;5031637;28;20229;-68
2021/12/14 03:00:19;;;;;;;1.50;1.25;;;7.60;99.90;;;;;;5052064;28;20464;-68
2021/12/14 03:02:47;;;;;;;1.20;1.02;;;7.60;99.90;;;;;;5034562;28;20750;-70
2021/12/14 03:05:20;;;;;;;1.90;1.20;;;7.60;99.90;;;;;;5031159;28;20204;-67
2021/12/14 03:07:52;;;;;;;1.33;1.08;;;7.60;99.90;;;;;;5029227;28;20727;-68
2021/12/14 03:10:54;;;;;;;2.22;1.30;;;7.50;99.90;;;;;;5040904;28;20221;-67
2021/12/14 03:13:44;;;;;;;1.92;1.77;;;7.60;99.90;;;;;;5047191;28;20595;-68
2021/12/14 03:16:16;;;;;;;1.45;1.35;;;7.50;99.90;;;;;;5043509;28;20200;-68
2021/12/14 03:18:49;;;;;;;2.30;1.60;;;7.50;99.90;;;;;;5048867;28;20230;-68
2021/12/14 03:21:22;;;;;;;1.63;1.40;;;7.60;99.90;;;;;;5057890;28;20227;-68
2021/12/14 03:23:55;;;;;;;2.08;1.83;;;7.60;99.90;;;;;;5048953;28;20286;-68
2021/12/14 03:26:29;;;;;;;1.83;1.30;;;7.60;99.90;;;;;;5036983;28;20219;-68
2021/12/14 03:28:59;;;;;;;2.28;1.50;;;7.50;99.90;;;;;;5023841;28;20216;-68
2021/12/14 03:31:32;;;;;;;1.95;1.40;;;7.50;99.90;;;;;;5016883;28;20239;-68
2021/12/14 03:34:02;;;;;;;1.25;1.08;;;7.60;99.90;;;;;;5063568;28;20235;-67
2021/12/14 03:36:32;;;;;;;1.67;1.33;;;7.60;99.90;;;;;;5030435;28;20192;-68
2021/12/14 03:39:10;;;;;;;1.67;1.30;;;7.60;99.90;;;;;;5031804;28;20229;-69
2021/12/14 03:41:41;;;;;;;1.60;1.35;;;7.60;99.90;;;;;;5062952;28;20188;-67
2021/12/14 03:44:13;;;;;;;1.35;1.25;;;7.60;99.90;;;;;;5023506;28;20225;-68
2021/12/14 03:46:48;;;;;;;2.67;2.40;;;7.60;99.90;;;;;;5022079;28;20194;-67
2021/12/14 03:49:18;;;;;;;2.03;1.48;;;7.60;99.90;;;;;;5046984;28;20563;-68
2021/12/14 03:51:47;;;;;;;2.47;1.75;;;7.60;99.90;;;;;;5064373;28;20241;-66
2021/12/14 03:54:18;;;;;;;1.92;1.48;;;7.60;99.90;;;;;;5029453;28;20752;-68
2021/12/14 03:56:48;;;;;;;2.15;1.85;;;7.60;99.90;;;;;;5029778;28;20193;-69
2021/12/14 03:59:19;;;;;;;1.70;1.38;;;7.60;99.90;;;;;;5032201;28;20222;-68
2021/12/14 04:01:50;;;;;;;2.42;1.75;;;7.60;99.90;;;;;;5032929;28;20194;-68
2021/12/14 04:04:24;;;;;;;1.45;1.20;;;7.50;99.90;;;;;;5027768;28;20214;-69
2021/12/14 04:06:55;;;;;;;1.40;1.30;;;7.60;99.90;;;;;;5029570;28;20194;-68
2021/12/14 04:09:27;;;;;;;1.70;1.25;;;7.50;99.90;;;;;;5041567;28;20214;-67
2021/12/14 04:11:58;;;;;;;1.83;1.65;;;7.60;99.90;;;;;;5051422;28;20216;-67
2021/12/14 04:14:48;;;;;;;1.40;1.30;;;7.60;99.90;;;;;;5029245;28;20219;-67
2021/12/14 04:17:20;;;;;;;2.35;1.48;;;7.60;99.90;;;;;;5024088;28;20191;-70
2021/12/14 04:19:50;;;;;;;1.73;1.60;;;7.50;99.90;;;;;;5013840;28;20258;-67
2021/12/14 04:22:22;;;;;;;2.22;1.52;;;7.60;99.90;;;;;;5024020;28;20193;-68
2021/12/14 04:24:56;;;;;;;2.13;1.63;;;7.60;99.90;;;;;;5013229;28;20193;-68
2021/12/14 04:27:27;;;;;;;1.50;1.02;;;7.60;99.90;;;;;;5025161;28;20181;-67
2021/12/14 04:29:57;;;;;;;2.25;1.52;;;7.50;99.90;;;;;;5017566;28;20214;-67
2021/12/14 04:32:25;;;;;;;1.33;1.20;;;7.60;99.90;;;;;;5012615;28;20686;-67
2021/12/14 04:34:55;;;;;;;1.77;1.63;;;7.60;99.90;;;;;;5013332;28;20207;-68
2021/12/14 04:37:24;;;;;;;1.98;1.60;;;7.60;99.90;;;;;;5012493;28;20595;-69
2021/12/14 04:39:59;;;;;;;2.47;1.65;;;7.60;99.90;;;;;;5012784;28;20231;-67
2021/12/14 04:54:00;;;;;;;1.80;1.50;;;7.60;99.90;;;;;;4999073;28;20217;-68
2021/12/14 04:56:33;;;;;;;2.42;1.60;;;7.60;99.90;;;;;;5013404;28;20193;-68
2021/12/14 04:59:06;;;;;;;4.90;1.80;;;7.50;99.90;;;;;;5010281;28;20267;-68
2021/12/14 05:01:37;;;;;;;1.85;1.45;;;7.60;99.90;;;;;;5013374;28;20227;-67
2021/12/14 05:04:08;;;;;;;2.13;1.40;;;7.60;99.90;;;;;;5014354;28;20229;-68
2021/12/14 05:06:47;;;;;;;2.55;1.77;;;7.60;99.90;;;;;;5017185;28;20284;-68
2021/12/14 05:09:23;;;;;;;1.60;1.20;;;7.50;99.90;;;;;;5028919;28;20696;-68
2021/12/14 05:12:10;;;;;;;1.92;1.38;;;7.50;99.90;;;;;;5016623;28;20202;-68
2021/12/14 05:14:52;;;;;;;1.73;1.30;;;7.50;99.90;;;;;;5031617;28;20575;-68
2021/12/14 05:17:23;;;;;;;2.65;1.40;;;7.50;99.90;;;;;;5009853;28;20199;-67
2021/12/14 05:19:55;;;;;;;4.13;1.95;;;7.50;99.90;;;;;;5032219;28;20213;-67
2021/12/14 05:22:26;;;;;;;1.55;1.45;;;7.60;99.90;;;;;;5031155;28;20190;-68
2021/12/14 05:25:00;;;;;;;1.50;1.30;;;7.60;99.90;;;;;;4996673;28;20246;-67
2021/12/14 05:27:35;;;;;;;2.78;2.25;;;7.60;99.90;;;;;;5010541;28;20200;-69
2021/12/14 05:30:10;;;;;;;2.15;1.42;;;7.60;99.90;;;;;;5032764;28;20218;-68
2021/12/14 05:32:50;;;;;;;2.30;1.67;;;7.50;99.90;;;;;;5015477;28;20615;-68
2021/12/14 05:35:20;;;;;;;1.95;1.70;;;7.60;99.90;;;;;;5015440;28;20239;-70
2021/12/14 05:37:52;;;;;;;2.92;2.10;;;7.60;99.90;;;;;;5025858;28;20772;-66
2021/12/14 05:40:40;;;;;;;2.80;2.22;;;7.60;99.90;;;;;;5013281;28;20213;-69
2021/12/14 05:43:12;;;;;;;2.95;2.13;;;7.50;99.90;;;;;;5013512;28;20228;-68
2021/12/14 05:46:00;;;;;;;2.15;1.60;;;7.60;99.90;;;;;;5014686;28;20325;-66
2021/12/14 05:48:33;;;;;;;1.67;1.40;;;7.60;99.90;;;;;;5028670;28;20596;-68
2021/12/14 05:51:04;;;;;;;1.98;1.25;;;7.60;99.90;;;;;;5015088;28;20216;-66
2021/12/14 05:53:36;;;;;;;3.15;2.05;;;7.50;99.90;;;;;;5002543;28;20226;-68
2021/12/14 05:56:09;;;;;;;1.50;1.40;;;7.60;99.90;;;;;;5013038;28;20193;-68
2021/12/14 05:58:39;;;;;;;1.55;1.45;;;7.60;99.90;;;;;;5004512;28;20225;-68
2021/12/14 06:01:12;;;;;;;3.00;1.90;;;7.60;99.90;;;;;;5015235;28;20230;-67
2021/12/14 06:03:49;;;;;;;1.90;1.60;;;7.60;99.90;;;;;;5032483;28;20237;-67
2021/12/14 06:06:20;;;;;;;2.17;1.45;;;7.50;99.90;;;;;;5014803;28;20633;-69
2021/12/14 06:08:50;;;;;;;3.72;1.95;;;7.60;99.90;;;;;;5013059;28;20652;-68
2021/12/14 06:11:28;;;;;;;2.10;1.50;;;7.60;99.90;;;;;;5028974;28;20217;-68
2021/12/14 06:13:59;;;;;;;1.70;1.40;;;7.50;99.90;;;;;;5012909;28;20217;-68
2021/12/14 06:16:30;;;;;;;1.75;1.33;;;7.60;99.90;;;;;;5015330;28;20204;-70
2021/12/14 06:19:15;;;;;;;1.70;1.35;;;7.60;99.90;;;;;;5014751;28;20233;-69
2021/12/14 06:21:46;;;;;;;2.10;1.55;;;7.50;99.90;;;;;;4997270;28;20209;-68
2021/12/14 06:24:15;;;;;;;1.88;1.67;;;7.50;99.90;;;;;;5014525;28;20213;-69
2021/12/14 06:26:46;;;;;;;2.83;2.58;;;7.50;99.90;;;;;;5014983;28;20195;-68
2021/12/14 06:29:19;;;;;;;2.58;2.38;;;7.60;99.90;;;;;;5007242;28;20640;-67
2021/12/14 06:31:48;;;;;;;4.03;2.30;;;7.50;99.90;;;;;;5031625;28;20192;-68
2021/12/14 06:34:22;;;;;;;2.05;1.70;;;7.60;99.90;;;;;;5014350;28;20230;-68
2021/12/14 06:37:31;;;;;;;1.70;1.20;;;7.60;99.90;;;;;;5014177;28;20205;-69
2021/12/14 06:40:06;;;;;;;1.98;1.60;;;7.60;99.90;;;;;;5031959;28;20304;-68
2021/12/14 06:42:39;;;;;;;3.25;1.92;;;7.50;99.90;;;;;;5039994;28;20198;-69
2021/12/14 06:45:12;;;;;;;2.55;1.77;;;7.60;99.90;;;;;;4997834;28;20197;-68
2021/12/14 06:47:42;;;;;;;2.47;2.00;;;7.60;99.90;;;;;;5022643;28;20226;-69
2021/12/14 06:50:16;;;;;;;2.50;1.70;;;7.60;99.90;;;;;;5040249;28;20211;-69
2021/12/14 06:52:53;;;;;;;3.00;2.25;;;7.60;99.90;;;;;;5010338;28;20758;-67
2021/12/14 06:55:52;;;;;;;3.35;2.00;;;7.60;99.90;;;;;;5024328;28;20700;-69
2021/12/14 06:58:48;;;;;;;2.25;1.73;;;7.60;99.90;;;;;;5019103;28;20235;-67
2021/12/14 07:01:24;;;;;;;3.00;1.80;;;7.50;99.90;;;;;;5010913;28;20317;-69
2021/12/14 07:03:57;;;;;;;3.55;1.98;;;7.50;99.90;;;;;;5012139;28;20222;-67
2021/12/14 07:06:30;;;;;;;2.67;1.90;;;7.60;99.90;;;;;;5046048;28;20181;-68
2021/12/14 07:09:05;;;;;;;2.38;2.00;;;7.50;99.90;;;;;;5042191;28;20217;-68
2021/12/14 07:11:33;;;;;;;2.30;1.88;;;7.60;99.90;;;;;;5025454;28;20181;-69
2021/12/14 07:14:03;;;;;;;3.63;2.53;;;7.50;99.90;;;;;;5027187;28;20222;-67
2021/12/14 07:16:38;;;;;;;2.03;1.52;;;7.60;99.90;;;;;;5020894;28;20209;-68
2021/12/14 07:19:07;;;;;;;2.25;1.77;;;7.60;99.90;;;;;;5026238;28;20275;-69
2021/12/14 07:21:43;;;;;;;2.00;1.80;;;7.60;99.90;;;;;;5032084;28;20630;-69
2021/12/14 07:24:36;;;;;;;2.70;2.00;;;7.60;99.90;;;;;;5023399;28;20263;-67
2021/12/14 07:27:24;;;;;;;2.45;1.95;;;7.50;99.90;;;;;;5015257;28;20198;-67
2021/12/14 07:29:52;;;;;;;2.42;1.70;;;7.50;99.90;;;;;;5001853;28;20229;-70
2021/12/14 07:32:44;;;;;;;1.63;1.52;;;7.60;99.90;;;;;;5024925;28;20177;-69
2021/12/14 07:35:32;;;;;;;2.35;1.70;;;7.60;99.90;;;;;;5013039;28;20237;-67
2021/12/14 07:38:17;;;;;;;2.47;2.28;;;7.50;99.90;;;;;;5014640;28;20218;-69
2021/12/14 07:40:49;;;;;;;2.10;1.60;;;7.50;99.90;;;;;;5029472;28;20232;-70
2021/12/14 07:43:20;;;;;;;2.47;2.28;;;7.60;99.90;;;;;;5020128;28;20213;-69
2021/12/14 07:45:50;;;;;;;2.47;1.92;;;7.60;99.90;;;;;;5010842;28;20190;-69
2021/12/14 07:48:22;;;;;;;2.50;1.80;;;7.60;99.90;;;;;;5016309;28;20271;-68
2021/12/14 07:50:57;;;;;;;2.42;1.70;;;7.60;99.90;;;;;;5012854;28;20289;-70
2021/12/14 07:53:35;;;;;;;2.55;1.90;;;7.60;99.90;;;;;;5019510;28;20296;-68
2021/12/14 07:56:04;;;;;;;3.28;1.63;;;7.60;99.90;;;;;;5023249;28;20230;-66
2021/12/14 07:58:34;;;;;;;2.47;1.90;;;7.60;99.90;;;;;;5028075;28;20717;-68
2021/12/14 08:01:04;;;;;;;3.17;1.77;;;7.60;99.90;;;;;;5020876;28;20203;-67
2021/12/14 08:03:35;;;;;;;2.95;1.63;;;7.60;99.90;;;;;;5025239;28;20249;-66
2021/12/14 08:06:08;;;;;;;2.10;1.90;;;7.60;99.90;;;;;;5027995;28;20282;-68
2021/12/14 08:08:44;;;;;;;4.30;1.90;;;7.60;99.90;;;;;;5020071;28;20221;-66
2021/12/14 08:11:30;;;;;;;3.25;1.70;;;7.60;99.90;;;;;;5017873;28;20267;-67
2021/12/14 08:14:02;;;;;;;2.40;2.17;;;7.60;99.90;;;;;;5020692;28;20223;-66
2021/12/14 08:16:44;;;;;;;1.83;1.73;;;7.60;99.90;;;;;;5016143;28;20624;-66
2021/12/14 08:19:27;;;;;;;1.98;1.60;;;7.60;99.90;;;;;;5027573;28;20226;-67
2021/12/14 08:21:55;;;;;;;2.78;1.88;;;7.50;99.90;;;;;;5025677;28;20201;-66
2021/12/14 08:24:24;;;;;;;2.28;1.90;;;7.60;99.90;;;;;;5025772;28;20263;-68
2021/12/14 08:26:56;;;;;;;2.00;1.80;;;7.60;99.90;;;;;;5017792;28;20189;-66
2021/12/14 08:29:26;;;;;;;1.50;1.40;;;7.60;99.90;;;;;;5018758;28;20638;-66
2021/12/14 08:31:58;;;;;;;1.77;1.60;;;7.60;99.90;;;;;;5012476;28;20645;-66
2021/12/14 08:34:31;;;;;;;2.17;1.73;;;7.60;99.90;;;;;;5026753;28;20224;-66
2021/12/14 08:37:22;;;;;;;2.33;1.55;;;7.60;99.90;;;;;;5009181;28;20216;-66
2021/12/14 08:39:55;;;;;;;1.85;1.65;;;7.60;99.90;;;;;;5048942;28;20300;-68
2021/12/14 08:42:32;;;;;;;1.73;1.63;;;7.60;99.90;;;;;;5022299;28;20219;-66
2021/12/14 08:45:24;;;;;;;2.78;1.50;;;7.50;99.90;;;;;;5033838;28;20200;-66
2021/12/14 08:47:58;;;;;;;1.75;1.33;;;7.60;99.90;;;;;;5021416;28;20228;-66
2021/12/14 08:50:29;;;;;;;1.65;1.25;;;7.60;99.90;;;;;;5043045;28;20223;-68
2021/12/14 08:52:59;;;;;;;2.00;1.60;;;7.60;99.90;;;;;;5027459;28;20778;-66
2021/12/14 08:55:32;;;;;;;2.45;1.75;;;7.60;99.90;;;;;;5032431;28;20239;-66
2021/12/14 08:58:01;;;;;;;2.00;1.63;;;7.60;99.90;;;;;;5016096;28;20213;-66
2021/12/14 09:00:33;;;;;;;2.20;1.60;;;7.60;99.90;;;;;;5020847;28;20301;-69
2021/12/14 09:03:06;;;;;;;2.22;1.35;;;7.50;99.90;;;;;;5023113;28;20783;-66
2021/12/14 09:05:42;;;;;;;2.10;1.50;;;7.60;99.90;;;;;;5030375;28;20193;-66
2021/12/14 09:08:11;;;;;;;2.13;1.77;;;7.60;99.90;;;;;;5027693;28;20210;-66
2021/12/14 09:10:41;;;;;;;1.92;1.70;;;7.60;99.90;;;;;;5034748;28;20623;-66
2021/12/14 09:13:12;;;;;;;3.22;1.80;;;7.60;99.90;;;;;;5033170;28;20686;-65
2021/12/14 09:15:45;;;;;;;1.42;1.33;;;7.60;99.90;;;;;;5024366;28;20197;-66
2021/12/14 09:18:18;;;;;;;2.25;1.67;;;7.50;99.90;;;;;;5006719;28;20312;-66
2021/12/14 09:20:50;;;;;;;2.45;1.50;;;7.60;99.90;;;;;;5013299;28;20304;-67
2021/12/14 09:23:23;;;;;;;1.67;1.45;;;7.60;99.90;;;;;;5028184;28;20232;-65
2021/12/14 09:25:53;;;;;;;2.25;1.33;;;7.60;99.90;;;;;;5029012;28;20194;-66
2021/12/14 09:28:22;;;;;;;1.73;1.45;;;7.60;99.90;;;;;;5022317;28;20260;-65
2021/12/14 09:30:56;;;;;;;2.60;2.00;;;7.60;99.90;;;;;;5026859;28;20683;-67
2021/12/14 09:33:26;;;;;;;1.73;1.63;;;7.60;99.90;;;;;;5021285;28;20245;-66
2021/12/14 09:35:57;;;;;;;2.47;1.95;;;7.60;99.90;;;;;;5021595;28;20186;-66
2021/12/14 09:38:32;;;;;;;1.95;1.70;;;7.60;99.90;;;;;;5009495;28;20220;-66
2021/12/14 09:41:05;;;;;;;2.58;1.67;;;7.50;99.90;;;;;;5032679;28;20423;-66
2021/12/14 09:43:34;;;;;;;1.80;1.70;;;7.50;99.90;;;;;;5020728;28;20499;-65
2021/12/14 09:46:06;;;;;;;2.20;1.70;;;7.50;99.90;;;;;;5026136;28;20197;-65
2021/12/14 09:48:37;;;;;;;2.08;1.88;;;7.60;99.90;;;;;;5012212;28;20632;-67
2021/12/14 09:51:10;;;;;;;2.00;1.80;;;7.60;99.90;;;;;;5030975;28;20215;-66
2021/12/14 09:53:46;;;;;;;2.50;1.95;;;7.50;99.90;;;;;;5031301;28;20304;-66
2021/12/14 09:56:18;;;;;;;2.85;1.80;;;7.60;99.90;;;;;;5028241;28;20202;-65
2021/12/14 09:58:49;;;;;;;1.48;1.15;;;7.60;99.90;;;;;;5027808;28;20227;-65
2021/12/14 10:01:23;;;;;;;2.65;1.75;;;7.50;99.90;;;;;;5033650;28;20651;-66
2021/12/14 10:03:59;;;;;;;2.20;1.77;;;7.60;99.90;;;;;;5032021;28;20259;-66
2021/12/14 10:06:33;;;;;;;1.77;1.48;;;7.60;99.90;;;;;;5037540;28;20660;-66
2021/12/14 10:09:05;;;;;;;1.55;1.30;;;7.60;99.90;;;;;;5026077;28;20356;-66
2021/12/14 10:11:43;;;;;;;2.15;1.83;;;7.60;99.90;;;;;;5033365;28;20643;-66
2021/12/14 10:14:13;;;;;;;2.13;1.33;;;7.60;99.90;;;;;;5029374;28;20296;-66
2021/12/14 10:16:42;;;;;;;1.55;1.45;;;7.60;99.90;;;;;;5032468;28;20206;-65
2021/12/14 10:19:14;;;;;;;1.80;1.40;;;7.60;99.90;;;;;;5013798;28;20360;-65
2021/12/14 10:21:46;;;;;;;1.48;1.35;;;7.60;99.90;;;;;;5013668;28;20218;-67
2021/12/14 10:24:16;;;;;;;1.55;1.20;;;7.50;99.90;;;;;;5030448;28;20217;-66
2021/12/14 10:26:48;;;;;;;1.70;1.60;;;7.60;99.90;;;;;;5013718;28;20234;-66
2021/12/14 10:29:18;;;;;;;1.63;1.50;;;7.60;99.90;;;;;;5014219;28;20226;-66
2021/12/14 10:31:52;;;;;;;2.30;1.60;;;7.50;99.90;;;;;;5011875;28;20205;-67
2021/12/14 10:34:25;;;;;;;1.85;1.55;;;7.60;99.90;;;;;;5027803;28;20686;-66
2021/12/14 10:37:07;;;;;;;1.70;1.60;;;7.60;99.90;;;;;;5047587;28;20195;-66
2021/12/14 10:42:36;;;;;;;1.60;1.50;;;7.50;99.90;;;;;;5002118;28;20290;-65
2021/12/14 10:42:52;;;;;;;1.92;1.70;;;7.60;99.90;;;;;;4995167;28;20681;-67
2021/12/14 10:45:21;;;;;;;1.50;1.40;;;7.50;99.90;;;;;;5031496;28;20197;-66
2021/12/14 10:47:49;;;;;;;1.95;1.55;;;7.60;99.90;;;;;;5030100;28;20213;-66
2021/12/14 10:50:22;;;;;;;1.40;1.30;;;7.60;99.90;;;;;;4995342;28;20221;-67
2021/12/14 10:52:52;;;;;;;1.95;1.52;;;7.60;99.90;;;;;;5020986;28;20309;-66
2021/12/14 10:55:25;;;;;;;1.50;1.40;;;7.60;99.90;;;;;;5023832;28;20201;-67
2021/12/14 10:57:54;;;;;;;2.00;1.60;;;7.50;99.90;;;;;;5030427;28;20230;-66
2021/12/14 11:00:32;;;;;;;2.60;1.83;;;7.50;99.90;;;;;;5019528;28;20588;-68
2021/12/14 11:03:04;;;;;;;2.38;1.67;;;7.60;99.90;;;;;;5031465;28;20226;-66
2021/12/14 11:05:36;;;;;;;2.00;1.67;;;7.60;99.90;;;;;;5022858;28;20256;-67
2021/12/14 11:08:17;;;;;;;1.40;1.10;;;7.60;99.90;;;;;;5010412;28;20246;-66
2021/12/14 11:10:46;;;;;;;2.90;1.90;;;7.60;99.90;;;;;;5018046;28;20213;-66
2021/12/14 11:13:15;;;;;;;1.30;1.20;;;7.50;99.90;;;;;;5024496;28;20222;-66
2021/12/14 11:15:46;;;;;;;1.33;1.20;;;7.60;99.90;;;;;;4994824;28;20532;-65
2021/12/14 11:18:18;;;;;;;1.70;1.25;;;7.60;99.90;;;;;;5026686;28;20226;-67
2021/12/14 11:20:51;;;;;;;1.60;1.35;;;7.50;99.90;;;;;;5019627;28;20220;-68
2021/12/14 11:23:23;;;;;;;1.42;1.30;;;7.60;99.90;;;;;;5027257;28;20226;-66
2021/12/14 11:25:58;;;;;;;2.80;1.67;;;7.60;99.90;;;;;;5014142;28;20193;-66
2021/12/14 11:28:33;;;;;;;1.52;1.38;;;7.60;99.90;;;;;;5046094;28;20221;-65
2021/12/14 11:31:05;;;;;;;1.63;1.38;;;7.60;99.90;;;;;;5008591;28;20308;-66
2021/12/14 11:33:37;;;;;;;1.65;1.55;;;7.60;99.90;;;;;;4995052;28;20226;-67
2021/12/14 11:36:15;;;;;;;2.38;1.80;;;7.50;99.90;;;;;;5000274;28;20670;-66
2021/12/14 11:38:49;;;;;;;1.50;1.40;;;7.50;99.90;;;;;;5010082;28;20216;-66
2021/12/14 11:41:37;;;;;;;1.70;1.60;;;7.50;99.90;;;;;;5022467;28;20195;-65
2021/12/14 11:44:13;;;;;;;1.63;1.50;;;7.60;99.90;;;;;;5018684;28;20244;-66
2021/12/14 11:47:01;;;;;;;1.50;1.40;;;7.50;99.90;;;;;;5026217;28;20726;-66
2021/12/14 11:49:44;;;;;;;2.40;1.77;;;7.60;99.90;;;;;;5029079;28;20602;-66
2021/12/14 11:52:13;;;;;;;2.15;1.40;;;7.60;99.90;;;;;;5028745;28;20629;-67
2021/12/14 11:54:48;;;;;;;1.38;1.20;;;7.60;99.90;;;;;;5027945;28;20757;-66
2021/12/14 11:57:17;;;;;;;2.03;1.70;;;7.60;99.90;;;;;;5021244;28;20224;-66
2021/12/14 11:59:45;;;;;;;1.80;1.50;;;7.60;99.90;;;;;;5012776;28;20283;-66
2021/12/14 12:02:13;;;;;;;2.95;1.38;;;7.60;99.90;;;;;;5015692;28;20569;-67
2021/12/14 12:04:46;;;;;;;2.15;1.90;;;7.60;99.90;;;;;;5015489;28;20238;-67
2021/12/14 12:10:07;;;;;;;2.10;1.33;;;7.60;99.90;;;;;;5044464;28;20265;-65
2021/12/14 12:12:38;;;;;;;1.50;1.40;;;7.60;99.90;;;;;;5048849;28;20225;-66
2021/12/14 12:15:10;;;;;;;2.47;1.40;;;7.60;99.90;;;;;;5050364;28;20209;-66
2021/12/14 12:17:41;;;;;;;2.25;1.50;;;7.60;99.90;;;;;;5035663;28;20224;-65
2021/12/14 12:20:18;;;;;;;1.65;1.42;;;7.60;99.90;;;;;;5047136;28;20259;-66
2021/12/14 12:22:50;;;;;;;1.40;1.27;;;7.60;99.90;;;;;;5052315;28;20268;-66
2021/12/14 12:25:24;;;;;;;1.70;1.55;;;7.60;99.90;;;;;;5053484;28;20229;-68
2021/12/14 12:27:53;;;;;;;1.95;1.60;;;7.60;99.90;;;;;;5035465;28;20221;-66
2021/12/14 12:30:40;;;;;;;1.70;1.60;;;7.60;99.90;;;;;;5039239;28;20220;-67
2021/12/14 12:33:13;;;;;;;2.00;1.52;;;7.60;99.90;;;;;;5049863;28;20228;-67
2021/12/14 12:35:44;;;;;;;1.77;1.67;;;7.60;99.90;;;;;;5042425;28;20185;-65
2021/12/14 12:38:33;;;;;;;2.13;1.88;;;7.60;99.90;;;;;;5045642;28;20606;-66
2021/12/14 12:41:09;;;;;;;2.17;1.73;;;7.60;99.90;;;;;;5037050;28;20279;-66
2021/12/14 12:43:41;;;;;;;3.40;2.22;;;7.60;99.90;;;;;;5034928;28;20690;-66
2021/12/14 12:46:21;;;;;;;2.30;1.92;;;7.60;99.90;;;;;;5034748;28;20185;-66
2021/12/14 12:49:07;;;;;;;3.10;2.35;;;7.60;99.90;;;;;;5034352;28;20229;-66
2021/12/14 12:52:12;;;;;;;2.88;2.28;;;7.60;99.90;;;;;;5034700;28;20191;-67
2021/12/14 12:54:52;;;;;;;3.53;2.40;;;7.60;99.90;;;;;;5034548;28;20267;-67
2021/12/14 12:57:33;;;;;;;4.50;2.42;;;7.60;99.90;;;;;;5033891;28;20193;-68
2021/12/14 13:00:11;;;;;;;3.15;2.22;;;7.60;99.90;;;;;;5044415;28;20223;-66
2021/12/14 13:02:43;;;;;;;3.13;2.80;;;7.60;99.90;;;;;;5033922;28;20268;-67
2021/12/14 13:05:23;;;;;;;3.08;2.20;;;7.60;99.90;;;;;;5016831;28;20307;-66
2021/12/14 13:07:55;;;;;;;2.90;2.38;;;7.60;99.90;;;;;;5031973;28;20219;-65
2021/12/14 13:10:27;;;;;;;2.20;2.00;;;7.60;99.90;;;;;;5033136;28;20213;-66
2021/12/14 13:13:03;;;;;;;2.38;2.17;;;7.60;99.90;;;;;;5033959;28;20225;-68
2021/12/14 13:15:45;;;;;;;2.50;2.30;;;7.60;99.90;;;;;;5052834;28;20208;-66
2021/12/14 13:18:29;;;;;;;3.15;2.30;;;7.60;99.90;;;;;;5053635;28;20291;-65
2021/12/14 13:21:01;;;;;;;3.05;2.50;;;7.60;99.90;;;;;;5036602;28;20257;-66
2021/12/14 13:23:42;;;;;;;3.30;2.30;;;7.60;99.90;;;;;;5051516;28;20250;-66
2021/12/14 13:26:27;;;;;;;2.28;1.95;;;7.60;99.90;;;;;;5054082;28;20173;-65
2021/12/14 13:29:01;;;;;;;2.33;2.10;;;7.60;99.90;;;;;;5052915;28;20261;-65
2021/12/14 13:31:35;;;;;;;2.60;2.30;;;7.60;99.90;;;;;;5054093;28;20188;-66
2021/12/14 13:34:06;;;;;;;3.50;2.70;;;7.60;99.90;;;;;;5053226;28;20221;-66
2021/12/14 13:36:35;;;;;;;3.08;2.33;;;7.60;99.90;;;;;;5052852;28;20201;-65
2021/12/14 13:39:06;;;;;;;2.67;2.33;;;7.60;99.90;;;;;;5050354;28;20667;-66
2021/12/14 13:41:53;;;;;;;2.35;2.00;;;7.60;99.90;;;;;;5035998;28;20193;-68
2021/12/14 13:44:23;;;;;;;4.63;2.03;;;7.60;99.90;;;;;;5052077;28;20779;-67
2021/12/14 13:46:52;;;;;;;3.05;2.33;;;7.60;99.90;;;;;;5053907;28;20189;-66
2021/12/14 13:49:20;;;;;;;3.13;2.45;;;7.60;99.90;;;;;;5052743;28;20231;-66